KRAP/RAP METAR and TAF weather

Enter ICAO airport designator
Station Type Date Time Source
KRAP METAR 2021/03/05 00:52 UTC NOAA

KRAP 050052Z 09008KT 10SM CLR 09/01 A3011 RMK AO2 SLP215 T00940006


Station Type Date Time Source
KRAP Decoded METAR 2021/03/05 00:52 UTC NOAA

RAPID CITY REGIONAL AIRPORT , SD, United States (KRAP) 44-03N 103-03W 965M
Mar 04, 2021 - 07:52 PM EST / 2021.03.05 0052 UTC
Wind: from the E (090 degrees) at 9 MPH (8 KT):0
Visibility: 10 mile(s):0
Sky conditions: clear
Temperature: 48.9 F (9.4 C)
Dew Point: 33.1 F (0.6 C)
Relative Humidity: 54%
Pressure (altimeter): 30.11 in. Hg (1019 hPa)
ob: KRAP 050052Z 09008KT 10SM CLR 09/01 A3011 RMK AO2 SLP215 T00940006
cycle: 1

Station Type Date Time Source
KRAP TAF 2021/03/04 18:22 UTC NOAA

TAF KRAP 041720Z 0418/0518 10009KT P6SM SCT250
FM050000 VRB05KT P6SM FEW250

Example: see airport list